LIMJ Airport Information

Runway Information
Runway 10 Length 9564 ft width 148 ft
Elevation 9 ft Threshold 0 ft Heading 105
Runway 28 Length 9564 ft Width 148 ft
Elevation 12 ft Threshold 528 ft Heading 285
Airport Frequencies
Type APP Name APP Frequency 119.6 MHZ
Type ATIS Name ATIS Frequency 122.825 MHZ
Type TWR Name TWR Frequency 118.6 MHZ
Airport Navaids
Type VOR-DME Name Genova Frequency 112800 KHZ
Type NDB Name Genova Frequency 318 KHZ
Type VOR-DME Name Genova Sestri Frequency 108600 KHZ
Airport Weather Information & NOTAM
ADDS - METARS form results

(0704 UTC 24 July 2021)
Data provider http://aviationweather.gov/metar/data/
 
METAR text: LIMJ 240650Z VRB02KT 9999 BKN028 25/21 Q1013
Conditions at: LIMJ (GENOVA/SESTRI , IT) observed 0650 UTC 24 July 2021
Temperature: 25.0°C (77°F)
Dewpoint: 21.0°C (70°F) [RH = 79%]
Pressure (altimeter): 29.91 inches Hg (1013.0 mb)
Winds: variable direction winds at 2 MPH (2 knots; 1.0 m/s)
Visibility: 6 or more miles (10+ km)
Ceiling: 2800 feet AGL
Clouds: broken clouds at 2800 feet AGL
Weather: no significant weather observed at this time

METAR text: LIMJ 240620Z 08003KT 9999 BKN028 25/21 Q1013
Conditions at: LIMJ (GENOVA/SESTRI , IT) observed 0620 UTC 24 July 2021
Temperature: 25.0°C (77°F)
Dewpoint: 21.0°C (70°F) [RH = 79%]
Pressure (altimeter): 29.91 inches Hg (1013.0 mb)
Winds: from the E (80 degrees) at 3 MPH (3 knots; 1.5 m/s)
Visibility: 6 or more miles (10+ km)
Ceiling: 2800 feet AGL
Clouds: broken clouds at 2800 feet AGL
Weather: no significant weather observed at this time

Forecast for: LIMJ (GENOVA/SESTRI , IT)
Text: TAF LIMJ 240500Z 2406/2506 VRB05KT 9999 SCT040
Forecast period: 0600 to 0900 UTC 24 July 2021
Forecast type: FROM: standard forecast or significant change
Winds: variable direction winds at 6 MPH (5 knots; 2.6 m/s)
Visibility: 6 or more miles (10+ km)
Ceiling: at least 12,000 feet AGL
Clouds: scattered clouds at 4000 feet AGL
Weather: no significant weather forecast for this period
Text: BECMG 2409/2411 15010KT
Forecast period: 0900 to 1600 UTC 24 July 2021
Forecast type: BECOMING: Conditions expected to become as follows by 1100 UTC 24 July 2021
Winds: from the SSE (150 degrees) at 12 MPH (10 knots; 5.1 m/s)
Visibility: 6 or more miles (10+ km)
Ceiling: at least 12,000 feet AGL
Clouds: scattered clouds at 4000 feet AGL
Weather: no significant weather forecast for this period
Text: BECMG 2416/2418 VRB05KT
Forecast period: 1600 UTC 24 July 2021 to 0600 UTC 25 July 2021
Forecast type: BECOMING: Conditions expected to become as follows by 1800 UTC 24 July 2021
Winds: variable direction winds at 6 MPH (5 knots; 2.6 m/s)
Visibility: 6 or more miles (10+ km)
Ceiling: at least 12,000 feet AGL
Clouds: scattered clouds at 4000 feet AGL
Weather: no significant weather forecast for this period